Airfield :
LOGIN :

Register | Disclaimer

   EN    FR    IT 

 










Legend :    VFR   Marginal VFR   IFR   Intensive IFR   Very Intensive IFR
Visi :
Ceiling :
>= 8 km
>= 3000ft
5 to 8 km
1000 to 3000 ft
1500m to 5 km
500 to 1000 ft
800 to 1500m
200 to 500 ft
< 800m
< 200 ft
Symbols :   Thunderstorms  Fog  Heavy snow  Heavy precipitations  Wind > 20 kt
SIGMETs :     Misc.  Thunderstorms  Icing  Turbulence  Mountain Waves  Volcanic Ashes







- Airport Elevation : 2077 ft
- IATA code : FMM


EDJA - Memmingen

CURRENT METAR :
  • 211620Z 27004KT CAVOK M01/M03 Q1017

EXPIRED METARs :
  • 211550Z 27003KT 9999 FEW033 M00/M03 Q1017
  • 211520Z 27005KT 9999 FEW022 SCT028 M00/M03 Q1017
  • 211450Z 27004KT 9999 FEW030 00/M03 Q1017
  • 211420Z 28008KT 9999 FEW042 01/M04 Q1016
  • 211350Z 30008KT 9999 FEW045 01/M03 Q1016
  • 211320Z 30008KT 9999 FEW036 01/M03 Q1016

TAF TAF EDJA
Valid from the 21 at 15:00 until the 22 at 00:00 UTC


211400Z 2115/2124 30008KT 9999 SCT045
BECMG 2116/2119 21005KT
TEMPO 2121/2124 2000 -SN BKN014
No reported NOTAMs for that airfield.



MET'MAP, your aeronautical weather chart ! - Copyright ORBIFLY December 2007 - Disclaimer

ORBIFLY MET'MAP TEAM :

Programming & Development : Alexandra Zaïnal
Concept & Development : Baudouin d'Aumeries
Co-Development & Prog : Marc-Olivier Méhu
Technical & hardware support : Manuel Goepfert

Contact : metmap@orbifly.com




SOURCES & CREDITS :

   NOAA